createdAt,value
2018-06-08T07:14:24.144Z,98462.51
2018-06-08T07:24:08.907Z,98469.66
2018-06-08T07:26:42.185Z,98472.61
2018-06-08T07:29:13.561Z,98467.61
2018-06-08T07:39:02.221Z,98470.77
2018-06-08T14:09:49.282Z,98339.64
2018-06-08T14:12:22.134Z,98334.82
2018-06-08T14:14:54.714Z,98306.63
2018-06-08T14:17:27.200Z,98308.02
2018-06-08T14:20:06.954Z,98314.30
2018-06-08T14:22:40.445Z,98331.45
2018-06-08T14:25:22.098Z,98330.45
2018-06-08T14:27:56.902Z,98327.59
2018-06-08T14:30:34.133Z,98324.86
2018-06-08T14:33:12.140Z,98305.53
2018-06-08T14:35:48.283Z,98297.77
2018-06-08T14:38:25.060Z,98286.94
2018-06-08T14:41:20.011Z,98292.14
2018-06-08T14:44:05.233Z,98297.05
2018-06-08T14:46:50.656Z,98295.09
2018-06-08T14:49:33.141Z,98291.47
2018-06-08T14:52:13.914Z,98286.34
2018-06-08T14:54:50.535Z,98287.29
2018-06-08T14:57:28.320Z,98282.95
2018-06-08T15:00:04.532Z,98286.81
2018-06-08T15:02:39.768Z,98288.27
2018-06-08T15:05:18.740Z,98288.61
2018-06-08T15:07:55.774Z,98291.61
2018-06-08T15:10:32.225Z,98297.51
2018-06-08T15:13:08.456Z,98290.56
2018-06-08T15:15:42.316Z,98279.52
2018-06-08T15:18:19.111Z,98277.70
2018-06-08T15:21:00.031Z,98262.63
2018-06-08T15:23:33.561Z,98254.09
2018-06-08T15:26:09.749Z,98247.83
2018-06-08T15:28:45.677Z,98237.53
2018-06-08T15:31:24.143Z,98243.41
2018-06-08T15:33:55.947Z,98251.31
2018-06-08T15:36:30.337Z,98252.77
2018-06-08T15:39:06.448Z,98262.00
2018-06-08T15:41:42.209Z,98269.49
2018-06-08T15:44:15.516Z,98278.73
2018-06-08T15:46:58.212Z,98281.81
2018-06-08T15:49:31.497Z,98285.39
2018-06-08T15:52:08.959Z,98291.92
2018-06-08T15:54:42.115Z,98290.23
2018-06-08T15:57:19.040Z,98299.42
2018-06-08T15:59:51.709Z,98304.80
2018-06-08T16:02:25.219Z,98309.87
2018-06-08T16:04:57.197Z,98309.25
2018-06-08T16:07:29.608Z,98307.55
2018-06-08T16:10:03.814Z,98300.27
2018-06-08T16:12:36.884Z,98302.39
2018-06-08T16:15:08.919Z,98290.42
2018-06-08T16:17:40.593Z,98288.69
2018-06-08T16:20:12.585Z,98292.81
2018-06-08T16:22:46.252Z,98293.11
2018-06-08T16:25:19.190Z,98293.83
2018-06-08T16:27:50.279Z,98292.60
2018-06-08T16:30:22.730Z,98288.49
2018-06-08T16:32:55.964Z,98287.59
2018-06-08T16:35:28.852Z,98288.59
2018-06-08T16:38:02.145Z,98292.08
2018-06-08T16:40:34.845Z,98286.75
2018-06-08T16:43:07.780Z,98294.84
2018-06-08T16:45:40.590Z,98296.28
2018-06-08T16:48:13.419Z,98290.53
2018-06-08T16:50:45.239Z,98289.61
2018-06-08T16:53:18.113Z,98287.27
2018-06-08T16:55:49.949Z,98283.82
2018-06-08T16:58:21.582Z,98283.11
2018-06-08T17:00:53.863Z,98281.64
2018-06-08T17:03:26.501Z,98284.70
2018-06-08T17:05:58.569Z,98286.84
2018-06-08T17:08:30.152Z,98284.36
2018-06-08T17:11:01.835Z,98284.52
2018-06-08T17:13:34.132Z,98282.23
2018-06-08T17:16:05.990Z,98278.95
2018-06-08T17:18:38.028Z,98273.94
2018-06-08T17:21:09.560Z,98267.57
2018-06-08T17:23:41.194Z,98259.96
2018-06-08T17:26:13.509Z,98257.34
2018-06-08T17:28:46.682Z,98252.90
2018-06-08T17:31:18.641Z,98251.06
2018-06-08T17:33:51.527Z,98249.68
2018-06-08T17:36:23.178Z,98239.86
2018-06-08T17:38:54.868Z,98238.23
2018-06-08T17:41:26.529Z,98241.25
2018-06-08T17:43:58.334Z,98243.04
2018-06-08T17:46:31.141Z,98247.31
2018-06-08T17:49:02.979Z,98254.59
2018-06-08T17:51:35.911Z,98258.28
2018-06-08T17:54:07.421Z,98260.89
2018-06-08T17:56:39.752Z,98269.84
2018-06-08T17:59:12.558Z,98280.59
2018-06-08T18:01:44.635Z,98279.32
2018-06-08T18:04:16.599Z,98276.03
2018-06-08T18:06:48.723Z,98272.20
2018-06-08T18:09:27.193Z,98282.11
2018-06-08T18:12:08.330Z,98288.81
2018-06-08T18:14:40.173Z,98292.22
2018-06-08T18:17:14.168Z,98294.54
2018-06-08T18:19:47.479Z,98297.39
2018-06-08T18:22:20.467Z,98307.67
2018-06-08T18:25:35.357Z,98309.70
2018-06-08T18:28:07.038Z,98313.73
2018-06-08T18:30:39.356Z,98326.62
2018-06-08T18:33:12.472Z,98331.78
2018-06-08T18:35:44.224Z,98336.50
2018-06-08T18:38:16.579Z,98338.76
2018-06-08T18:40:48.333Z,98332.34
2018-06-08T18:43:19.854Z,98334.73
2018-06-08T18:45:53.655Z,98342.41
2018-06-08T18:48:25.755Z,98346.42
2018-06-08T18:50:57.279Z,98338.55
2018-06-08T18:53:28.835Z,98337.45
2018-06-08T18:56:02.707Z,98335.82
2018-06-08T18:58:34.815Z,98335.06
2018-06-08T19:01:07.666Z,98331.80
2018-06-08T19:03:39.073Z,98337.98
2018-06-08T19:06:11.695Z,98339.00
2018-06-08T19:08:44.623Z,98341.88
2018-06-08T19:11:17.169Z,98338.92
2018-06-08T19:13:49.343Z,98343.27
2018-06-08T19:16:22.011Z,98342.47
2018-06-08T19:18:53.748Z,98340.98
2018-06-08T19:21:24.395Z,98350.11
2018-06-08T19:23:55.770Z,98356.63
2018-06-08T19:26:27.452Z,98363.73
2018-06-08T19:28:59.634Z,98368.45
2018-06-08T19:31:32.470Z,98368.49
2018-06-08T19:34:03.956Z,98366.75
2018-06-08T19:36:35.755Z,98373.09
2018-06-08T19:39:10.289Z,98377.28
2018-06-08T19:41:43.833Z,98373.84
2018-06-08T19:44:15.651Z,98371.53
2018-06-08T19:46:47.845Z,98379.50
2018-06-08T19:49:20.067Z,98395.56
2018-06-08T19:51:51.923Z,98400.20
2018-06-08T19:54:23.792Z,98398.39
2018-06-08T19:56:55.663Z,98400.69
2018-06-08T19:59:26.971Z,98405.02
2018-06-08T20:02:04.593Z,98413.28
2018-06-08T20:04:36.677Z,98417.91
2018-06-08T20:07:08.716Z,98418.89
2018-06-08T20:09:39.991Z,98415.45
2018-06-08T20:12:12.080Z,98414.45
2018-06-08T20:14:43.734Z,98415.61
2018-06-08T20:17:21.073Z,98419.28
2018-06-08T20:20:08.665Z,98424.23
2018-06-08T20:22:41.934Z,98433.67
2018-06-08T20:25:24.129Z,98430.52
2018-06-08T20:27:55.668Z,98430.86
2018-06-08T20:30:27.329Z,98436.29
2018-06-08T20:32:58.649Z,98442.41
2018-06-08T20:35:29.801Z,98451.31
2018-06-08T20:38:02.375Z,98456.09
2018-06-08T20:40:33.881Z,98456.23
2018-06-08T20:43:06.366Z,98457.69
2018-06-08T20:45:36.997Z,98458.86
2018-06-08T20:48:09.126Z,98467.45
2018-06-08T20:50:41.072Z,98462.95
2018-06-08T20:53:12.412Z,98465.93
2018-06-08T20:55:43.849Z,98464.44
2018-06-08T20:58:29.058Z,98461.78
2018-06-08T21:01:01.242Z,98464.73
2018-06-08T21:03:32.797Z,98468.89
2018-06-08T21:06:04.668Z,98472.08
2018-06-08T21:08:36.145Z,98468.89
2018-06-08T21:11:08.120Z,98465.09
2018-06-08T21:13:39.369Z,98464.41
2018-06-08T21:16:11.507Z,98466.05
2018-06-08T21:18:42.815Z,98465.39
2018-06-08T21:21:14.180Z,98474.14
2018-06-08T21:23:45.351Z,98466.02
2018-06-08T21:26:16.752Z,98463.06
2018-06-08T21:28:48.352Z,98464.37
2018-06-08T21:31:20.971Z,98462.41
2018-06-08T21:33:52.874Z,98466.19
2018-06-08T21:36:24.147Z,98467.81
2018-06-08T21:38:55.401Z,98463.81
2018-06-08T21:41:26.615Z,98466.30
2018-06-08T21:43:57.859Z,98459.53
2018-06-08T21:46:28.937Z,98456.16
2018-06-08T21:49:00.444Z,98459.28
2018-06-08T21:51:31.515Z,98462.05
2018-06-08T21:54:02.861Z,98457.88
2018-06-08T21:56:34.482Z,98460.17
2018-06-08T21:59:05.759Z,98452.89
2018-06-08T22:01:36.889Z,98453.16
2018-06-08T22:04:08.284Z,98447.16
2018-06-08T22:06:39.847Z,98442.02
2018-06-08T22:09:11.338Z,98441.16
2018-06-08T22:11:42.796Z,98441.80
2018-06-08T22:14:14.216Z,98441.32
2018-06-08T22:16:45.479Z,98444.45
2018-06-08T22:19:16.968Z,98439.48
2018-06-08T22:21:48.627Z,98437.66
2018-06-08T22:24:19.973Z,98439.79
2018-06-08T22:26:51.392Z,98433.20
2018-06-08T22:29:22.920Z,98435.97
2018-06-08T22:31:54.982Z,98428.88
2018-06-08T22:34:27.289Z,98423.77
2018-06-08T22:36:59.143Z,98431.87
2018-06-08T22:39:30.730Z,98426.44
2018-06-08T22:42:01.783Z,98418.52
2018-06-08T22:44:33.118Z,98417.37
2018-06-08T22:47:04.330Z,98424.23
2018-06-08T22:49:36.992Z,98426.17
2018-06-08T22:52:09.434Z,98416.27
2018-06-08T22:54:40.770Z,98418.72
2018-06-08T22:57:12.155Z,98421.16
2018-06-08T22:59:43.616Z,98419.69
2018-06-08T23:02:14.485Z,98421.16
2018-06-08T23:04:45.675Z,98414.00
2018-06-08T23:07:18.471Z,98405.00
2018-06-08T23:09:50.678Z,98401.20
2018-06-08T23:12:21.654Z,98401.91
2018-06-08T23:14:53.269Z,98395.33
2018-06-08T23:17:24.873Z,98400.30
2018-06-08T23:19:57.648Z,98398.02
2018-06-08T23:22:28.782Z,98400.46
2018-06-08T23:24:59.733Z,98399.73
2018-06-08T23:27:30.805Z,98404.91
2018-06-08T23:30:01.828Z,98403.91
2018-06-08T23:32:32.679Z,98415.16
2018-06-08T23:35:04.491Z,98409.53
2018-06-08T23:37:35.533Z,98411.81
2018-06-08T23:40:06.998Z,98419.22
2018-06-08T23:42:38.571Z,98423.63
2018-06-08T23:45:09.923Z,98425.80
2018-06-08T23:47:41.111Z,98432.62
2018-06-08T23:50:11.970Z,98427.41
2018-06-08T23:52:42.969Z,98433.33
2018-06-08T23:55:14.101Z,98439.24
2018-06-08T23:57:45.857Z,98439.43
